createdAt,value
2017-08-30T00:01:53.632Z,88.00
2017-08-30T00:04:21.934Z,87.00
2017-08-30T00:06:50.254Z,86.80
2017-08-30T00:09:18.555Z,87.30
2017-08-30T00:11:46.877Z,86.40
2017-08-30T00:14:15.178Z,86.90
2017-08-30T00:16:43.646Z,86.10
2017-08-30T00:19:11.945Z,85.70
2017-08-30T00:21:40.244Z,85.90
2017-08-30T00:24:08.592Z,85.60
2017-08-30T00:26:36.917Z,85.20
2017-08-30T00:29:05.985Z,85.30
2017-08-30T00:31:34.459Z,85.30
2017-08-30T00:34:02.792Z,85.20
2017-08-30T00:36:31.112Z,85.20
2017-08-30T00:38:59.431Z,84.40
2017-08-30T00:41:27.730Z,84.00
2017-08-30T00:43:56.022Z,83.40
2017-08-30T00:46:24.344Z,83.90
2017-08-30T00:48:52.642Z,83.20
2017-08-30T00:51:20.959Z,82.30
2017-08-30T00:53:49.256Z,81.70
2017-08-30T00:56:17.545Z,80.30
2017-08-30T00:58:45.857Z,79.70
2017-08-30T01:01:14.151Z,79.60
2017-08-30T01:03:42.511Z,79.80
2017-08-30T01:06:10.807Z,80.20
2017-08-30T01:08:39.102Z,80.30
2017-08-30T01:11:07.435Z,80.20
2017-08-30T01:13:35.721Z,80.40
2017-08-30T01:16:04.809Z,80.80
2017-08-30T01:18:33.102Z,80.80
2017-08-30T01:21:01.419Z,80.90
2017-08-30T01:23:30.516Z,80.60
2017-08-30T01:25:59.558Z,80.80
2017-08-30T01:28:27.886Z,80.80
2017-08-30T01:30:56.186Z,80.50
2017-08-30T01:33:24.485Z,80.70
2017-08-30T01:35:52.787Z,80.60
2017-08-30T01:38:21.109Z,81.20
2017-08-30T01:40:49.412Z,80.40
2017-08-30T01:43:17.819Z,80.20
2017-08-30T01:45:46.139Z,79.30
2017-08-30T01:48:14.435Z,78.40
2017-08-30T01:50:42.730Z,77.60
2017-08-30T01:53:11.051Z,76.50
2017-08-30T01:55:39.353Z,75.60
2017-08-30T01:58:07.635Z,75.40
2017-08-30T02:00:35.925Z,75.20
2017-08-30T02:03:04.255Z,75.20
2017-08-30T02:05:32.556Z,74.80
2017-08-30T02:08:00.870Z,74.70
2017-08-30T02:10:29.194Z,75.20
2017-08-30T02:12:57.510Z,74.40
2017-08-30T02:15:25.802Z,74.00
2017-08-30T02:17:54.122Z,73.80
2017-08-30T02:20:22.435Z,73.70
2017-08-30T02:22:50.734Z,73.10
2017-08-30T02:25:19.030Z,73.00
2017-08-30T02:27:47.358Z,73.10
2017-08-30T02:30:16.421Z,73.10
2017-08-30T02:32:44.763Z,73.10
2017-08-30T02:35:13.083Z,73.30
2017-08-30T02:37:41.371Z,74.20
2017-08-30T02:40:09.698Z,74.70
2017-08-30T02:42:38.039Z,74.60
2017-08-30T02:45:06.634Z,74.30
2017-08-30T02:47:34.930Z,74.00
2017-08-30T02:50:03.240Z,73.80
2017-08-30T02:52:31.575Z,73.10
2017-08-30T02:54:59.861Z,72.80
2017-08-30T02:57:28.161Z,72.50
2017-08-30T02:59:57.222Z,71.20
2017-08-30T03:02:25.677Z,71.20
2017-08-30T03:04:53.990Z,70.50
2017-08-30T03:07:22.312Z,70.20
2017-08-30T03:09:50.598Z,70.20
2017-08-30T03:12:18.970Z,69.30
2017-08-30T03:14:47.302Z,69.00
2017-08-30T03:17:15.589Z,69.30
2017-08-30T03:19:43.885Z,69.80
2017-08-30T03:22:12.218Z,70.00
2017-08-30T03:24:40.526Z,69.70
2017-08-30T03:27:08.887Z,69.80
2017-08-30T03:29:37.177Z,68.40
2017-08-30T03:32:05.497Z,67.90
2017-08-30T03:34:33.818Z,67.30
2017-08-30T03:37:02.131Z,66.90
2017-08-30T03:39:31.206Z,67.60
2017-08-30T03:41:59.531Z,67.70
2017-08-30T03:44:27.839Z,68.50
2017-08-30T03:46:56.160Z,67.30
2017-08-30T03:49:24.452Z,67.40
2017-08-30T03:51:52.761Z,68.30
2017-08-30T03:54:23.008Z,68.10
2017-08-30T03:56:52.090Z,68.60
2017-08-30T03:59:20.383Z,68.60
2017-08-30T04:01:48.709Z,68.10
2017-08-30T04:04:17.029Z,67.40
2017-08-30T04:06:45.315Z,66.70
2017-08-30T04:09:13.845Z,66.50
2017-08-30T04:11:42.131Z,66.00
2017-08-30T04:14:10.446Z,65.90
2017-08-30T04:16:38.731Z,65.50
2017-08-30T04:19:07.047Z,64.60
2017-08-30T04:21:35.329Z,64.50
2017-08-30T04:24:03.650Z,64.40
2017-08-30T04:26:31.952Z,64.30
2017-08-30T04:29:00.241Z,64.00
2017-08-30T04:31:28.558Z,64.00
2017-08-30T04:33:56.851Z,63.60
2017-08-30T04:36:25.150Z,62.60
2017-08-30T04:38:53.440Z,63.20
2017-08-30T04:41:22.518Z,64.20
2017-08-30T04:43:50.833Z,64.00
2017-08-30T04:46:19.161Z,64.60
2017-08-30T04:48:47.484Z,65.00
2017-08-30T04:51:15.773Z,64.50
2017-08-30T04:53:44.186Z,64.90
2017-08-30T04:56:12.486Z,64.50
2017-08-30T04:58:40.784Z,63.70
2017-08-30T05:01:09.096Z,63.10
2017-08-30T05:03:37.396Z,62.70
2017-08-30T05:06:05.712Z,61.70
2017-08-30T05:08:33.990Z,61.20
2017-08-30T05:11:02.433Z,60.30
2017-08-30T05:13:30.756Z,59.30
2017-08-30T05:15:59.174Z,59.10
2017-08-30T05:18:27.461Z,59.20
2017-08-30T05:20:55.751Z,59.10
2017-08-30T05:23:24.061Z,59.00
2017-08-30T05:25:52.342Z,59.40
2017-08-30T05:28:20.653Z,58.90
2017-08-30T05:30:48.991Z,59.50
2017-08-30T05:33:17.274Z,58.90
2017-08-30T05:35:45.565Z,59.00
2017-08-30T05:38:13.895Z,58.60
2017-08-30T05:40:42.179Z,58.10
2017-08-30T05:43:10.486Z,57.60
2017-08-30T05:45:38.782Z,57.80
2017-08-30T05:48:07.132Z,57.10
2017-08-30T05:50:35.423Z,56.90
2017-08-30T05:53:03.700Z,56.70
2017-08-30T05:55:31.997Z,56.50
2017-08-30T05:58:00.310Z,56.60
2017-08-30T06:00:28.624Z,56.60
2017-08-30T06:02:56.923Z,56.50
2017-08-30T06:05:25.240Z,57.00
2017-08-30T06:07:53.554Z,56.80
2017-08-30T06:10:21.868Z,56.10
2017-08-30T06:12:50.159Z,56.50
2017-08-30T06:15:18.475Z,56.80
2017-08-30T06:17:46.760Z,56.10
2017-08-30T06:20:15.085Z,55.60
2017-08-30T06:22:43.395Z,55.50
2017-08-30T06:25:11.707Z,55.80
2017-08-30T06:27:40.017Z,55.40
2017-08-30T06:30:08.314Z,55.70
2017-08-30T06:32:36.599Z,54.90
2017-08-30T06:35:04.885Z,54.20
2017-08-30T06:37:33.180Z,54.40
2017-08-30T06:40:01.491Z,54.70
2017-08-30T06:42:29.789Z,54.90
2017-08-30T06:44:58.119Z,55.10
2017-08-30T06:47:27.185Z,54.60
2017-08-30T06:49:55.511Z,54.60
2017-08-30T06:52:23.794Z,54.30
2017-08-30T06:54:52.133Z,53.90
2017-08-30T06:57:20.409Z,53.80
2017-08-30T06:59:48.776Z,54.30
2017-08-30T07:02:17.059Z,53.60
2017-08-30T07:04:45.331Z,53.30
2017-08-30T07:07:13.610Z,53.40
2017-08-30T07:09:41.901Z,53.00
2017-08-30T07:12:10.212Z,53.30
2017-08-30T07:14:38.522Z,53.60
2017-08-30T07:17:07.574Z,53.60
2017-08-30T07:19:35.882Z,53.60
2017-08-30T07:22:04.165Z,53.70
2017-08-30T07:24:32.474Z,53.70
2017-08-30T07:27:00.765Z,54.10
2017-08-30T07:29:29.082Z,53.90
2017-08-30T07:31:57.405Z,53.70
2017-08-30T07:34:25.726Z,54.50
2017-08-30T07:36:54.077Z,53.80
2017-08-30T07:39:22.364Z,54.70
2017-08-30T07:41:50.678Z,55.30
2017-08-30T07:44:18.972Z,55.60
2017-08-30T07:46:47.252Z,55.50
2017-08-30T07:49:15.541Z,55.60
2017-08-30T07:51:43.831Z,56.90
2017-08-30T07:54:12.135Z,55.90
2017-08-30T07:56:40.451Z,55.90
2017-08-30T07:59:08.754Z,56.00
2017-08-30T08:01:37.034Z,55.70
2017-08-30T08:04:06.118Z,55.30
2017-08-30T08:06:34.400Z,55.40
2017-08-30T08:09:02.685Z,55.90
2017-08-30T08:11:30.977Z,54.70
2017-08-30T08:13:59.263Z,54.50
2017-08-30T08:16:27.588Z,54.60
2017-08-30T08:18:56.636Z,53.90
2017-08-30T08:21:24.923Z,53.90
2017-08-30T08:23:53.201Z,54.20
2017-08-30T08:26:22.268Z,53.10
2017-08-30T08:28:50.597Z,51.80
2017-08-30T08:31:18.881Z,52.10
2017-08-30T08:33:47.175Z,51.50
2017-08-30T08:36:15.509Z,52.10
2017-08-30T08:38:43.798Z,53.30
2017-08-30T08:41:12.119Z,52.80
2017-08-30T08:43:41.205Z,51.80
2017-08-30T08:46:09.499Z,51.80
2017-08-30T08:48:38.020Z,52.10
2017-08-30T08:51:06.307Z,51.10
2017-08-30T08:53:34.594Z,49.00
2017-08-30T08:56:02.949Z,50.60
2017-08-30T08:58:31.246Z,49.60
2017-08-30T09:00:59.539Z,50.70
2017-08-30T09:03:27.831Z,52.30
2017-08-30T09:05:56.130Z,51.40
2017-08-30T09:08:24.750Z,52.60
2017-08-30T09:10:53.062Z,54.60
2017-08-30T09:13:21.356Z,54.20
2017-08-30T09:15:49.641Z,53.60
2017-08-30T09:18:17.964Z,51.80
2017-08-30T09:20:46.262Z,51.90
2017-08-30T09:23:14.550Z,52.60
2017-08-30T09:25:42.839Z,51.30
2017-08-30T09:28:11.794Z,52.80
2017-08-30T09:30:40.088Z,53.40
2017-08-30T09:33:08.413Z,51.50
2017-08-30T09:35:36.698Z,51.70
2017-08-30T09:38:05.009Z,51.70
2017-08-30T09:40:33.304Z,52.50
2017-08-30T09:43:01.705Z,52.50
2017-08-30T09:45:30.075Z,51.30
2017-08-30T09:47:58.377Z,51.50
2017-08-30T09:50:27.483Z,51.60
2017-08-30T09:52:56.541Z,50.60
2017-08-30T09:55:24.855Z,50.60
2017-08-30T09:57:53.154Z,51.00
2017-08-30T10:00:21.471Z,51.50
2017-08-30T10:02:49.790Z,52.60
2017-08-30T10:05:18.074Z,51.80
2017-08-30T10:07:46.392Z,51.10
2017-08-30T10:10:14.685Z,50.60
2017-08-30T10:12:43.004Z,51.40
2017-08-30T10:15:11.292Z,51.90
2017-08-30T10:17:39.583Z,52.30
2017-08-30T10:20:08.249Z,52.00
2017-08-30T10:22:36.540Z,52.20
2017-08-30T10:25:04.826Z,51.40
2017-08-30T10:27:33.131Z,50.80
2017-08-30T10:30:01.711Z,50.00
2017-08-30T10:32:30.045Z,50.30
2017-08-30T10:34:58.438Z,49.70
2017-08-30T10:37:26.760Z,49.40
2017-08-30T10:39:55.096Z,49.30
2017-08-30T10:42:23.388Z,50.20
2017-08-30T10:44:51.670Z,49.50
2017-08-30T10:47:19.955Z,48.70
2017-08-30T10:49:48.249Z,50.20
2017-08-30T10:52:16.538Z,48.10
2017-08-30T10:54:44.939Z,48.80
2017-08-30T10:57:14.014Z,48.30
2017-08-30T10:59:42.302Z,48.20
2017-08-30T11:02:10.590Z,48.30
2017-08-30T11:04:38.888Z,47.50
2017-08-30T11:07:07.273Z,48.40
2017-08-30T11:09:35.595Z,47.80
2017-08-30T11:12:04.646Z,47.10
2017-08-30T11:14:32.934Z,47.00
2017-08-30T11:17:01.222Z,49.20
2017-08-30T11:19:29.512Z,51.30
2017-08-30T11:21:57.822Z,52.10
2017-08-30T11:24:26.113Z,52.30
2017-08-30T11:26:54.403Z,54.00
2017-08-30T11:29:22.685Z,53.30
2017-08-30T11:31:50.993Z,52.30
2017-08-30T11:34:19.306Z,53.00
2017-08-30T11:36:47.605Z,52.00
2017-08-30T11:39:15.935Z,53.60
2017-08-30T11:41:44.235Z,53.00
2017-08-30T11:44:12.522Z,53.40
2017-08-30T11:46:40.818Z,53.10
2017-08-30T11:49:09.105Z,54.40
2017-08-30T11:51:37.406Z,53.70
2017-08-30T11:54:05.736Z,53.90
2017-08-30T11:56:34.786Z,55.60
2017-08-30T11:59:03.121Z,55.50
2017-08-30T12:01:32.175Z,56.10
2017-08-30T12:04:00.470Z,56.00
2017-08-30T12:06:28.758Z,55.70
2017-08-30T12:08:57.057Z,55.00
2017-08-30T12:11:25.379Z,56.10
2017-08-30T12:13:53.694Z,57.50
2017-08-30T12:16:22.000Z,55.00
2017-08-30T12:18:50.294Z,55.20
2017-08-30T12:21:18.613Z,56.20
2017-08-30T12:23:46.941Z,57.00
2017-08-30T12:26:15.255Z,57.00
2017-08-30T12:28:43.528Z,56.20
2017-08-30T12:31:11.889Z,56.60
2017-08-30T12:33:40.177Z,56.10
2017-08-30T12:36:08.466Z,56.30
2017-08-30T12:38:42.526Z,55.10
2017-08-30T12:41:10.827Z,55.00
2017-08-30T12:43:39.260Z,54.30
2017-08-30T12:46:07.982Z,54.50
2017-08-30T12:48:36.399Z,54.80
2017-08-30T12:51:04.683Z,53.90
2017-08-30T12:53:32.982Z,54.30
2017-08-30T12:56:01.315Z,54.80
2017-08-30T12:58:29.810Z,53.90
2017-08-30T13:00:58.136Z,53.80
2017-08-30T13:03:26.462Z,53.30
2017-08-30T13:05:54.755Z,53.90
2017-08-30T13:08:23.058Z,54.10
2017-08-30T13:10:51.377Z,54.40
2017-08-30T13:13:19.674Z,54.20
2017-08-30T13:15:48.756Z,53.00
2017-08-30T13:18:17.047Z,52.90
2017-08-30T13:20:45.343Z,52.40
2017-08-30T13:23:13.641Z,53.40
2017-08-30T13:25:42.338Z,54.00
2017-08-30T13:28:10.633Z,54.00
2017-08-30T13:30:38.956Z,53.50
2017-08-30T13:33:07.279Z,53.40
2017-08-30T13:35:36.348Z,52.80
2017-08-30T13:38:04.637Z,52.80
2017-08-30T13:40:32.935Z,54.00
2017-08-30T13:43:01.229Z,52.20
2017-08-30T13:45:29.521Z,52.10
2017-08-30T13:47:57.897Z,51.50
2017-08-30T13:50:26.193Z,51.20
2017-08-30T13:52:54.486Z,51.90
2017-08-30T13:55:22.801Z,52.90
2017-08-30T13:57:51.122Z,52.30
2017-08-30T14:00:19.456Z,52.20
2017-08-30T14:02:47.748Z,51.60
2017-08-30T14:05:16.065Z,50.60
2017-08-30T14:07:44.513Z,52.30
2017-08-30T14:10:13.014Z,51.80
2017-08-30T14:12:41.545Z,52.30
2017-08-30T14:15:10.646Z,51.30
2017-08-30T14:17:38.950Z,51.20
2017-08-30T14:20:07.272Z,52.20
2017-08-30T14:22:35.567Z,51.70
2017-08-30T14:25:04.621Z,51.20
2017-08-30T14:27:33.087Z,51.20
2017-08-30T14:30:01.412Z,49.10
2017-08-30T14:32:29.707Z,50.10
2017-08-30T14:34:58.005Z,50.10
2017-08-30T14:37:26.290Z,50.00
2017-08-30T14:39:54.627Z,51.90
2017-08-30T14:42:22.921Z,52.30
2017-08-30T14:44:51.205Z,52.60
2017-08-30T14:47:19.503Z,52.30
2017-08-30T14:49:47.790Z,53.80
2017-08-30T14:52:16.103Z,53.80
2017-08-30T14:54:44.392Z,55.00
2017-08-30T14:57:13.447Z,54.60
2017-08-30T14:59:42.503Z,55.40
2017-08-30T15:02:10.906Z,55.30
2017-08-30T15:04:39.198Z,54.60
2017-08-30T15:07:07.526Z,55.30
2017-08-30T15:09:35.836Z,55.90
2017-08-30T15:12:04.125Z,55.60
2017-08-30T15:14:32.420Z,56.90
2017-08-30T15:17:00.702Z,56.90
2017-08-30T15:19:29.003Z,56.70
2017-08-30T15:21:57.335Z,57.40
2017-08-30T15:24:25.667Z,57.90
2017-08-30T15:26:54.321Z,57.80
2017-08-30T15:29:22.646Z,58.10
2017-08-30T15:31:50.932Z,59.10
2017-08-30T15:34:19.289Z,58.00
2017-08-30T15:36:47.593Z,58.80
2017-08-30T15:39:15.895Z,58.70
2017-08-30T15:41:44.929Z,58.80
2017-08-30T15:44:13.227Z,59.50
2017-08-30T15:46:41.566Z,59.70
2017-08-30T15:49:09.861Z,59.60
2017-08-30T15:51:39.027Z,61.40
2017-08-30T15:54:07.819Z,61.40
2017-08-30T15:56:36.231Z,61.80
2017-08-30T15:59:04.965Z,62.60
2017-08-30T16:01:33.605Z,63.00
2017-08-30T16:04:02.055Z,63.80
2017-08-30T16:06:30.369Z,64.20
2017-08-30T16:08:58.675Z,65.20
2017-08-30T16:11:26.971Z,66.70
2017-08-30T16:13:55.266Z,67.40
2017-08-30T16:16:24.277Z,66.40
2017-08-30T16:18:52.605Z,66.70
2017-08-30T16:21:20.924Z,66.50
2017-08-30T16:23:49.225Z,67.60
2017-08-30T16:26:17.605Z,67.10
2017-08-30T16:28:45.894Z,67.20
2017-08-30T16:31:14.194Z,67.40
2017-08-30T16:33:42.512Z,67.30
2017-08-30T16:36:10.804Z,67.40
2017-08-30T16:38:39.097Z,67.40
2017-08-30T16:41:07.413Z,68.00
2017-08-30T16:43:35.704Z,68.20
2017-08-30T16:46:04.004Z,69.50
2017-08-30T16:48:32.303Z,69.00
2017-08-30T16:51:00.609Z,69.70
2017-08-30T16:53:28.915Z,69.90
2017-08-30T16:55:57.241Z,70.80
2017-08-30T16:58:26.398Z,70.70
2017-08-30T17:00:54.699Z,70.50
2017-08-30T17:03:25.003Z,70.80
2017-08-30T17:05:54.076Z,71.40
2017-08-30T17:08:22.371Z,71.40
2017-08-30T17:10:50.674Z,71.70
2017-08-30T17:13:18.976Z,72.00
2017-08-30T17:15:47.271Z,71.90
2017-08-30T17:18:15.567Z,72.20
2017-08-30T17:20:43.863Z,72.40
2017-08-30T17:23:12.207Z,73.00
2017-08-30T17:25:41.396Z,73.10
2017-08-30T17:28:09.708Z,73.00
2017-08-30T17:30:38.023Z,72.80
2017-08-30T17:33:06.341Z,73.90
2017-08-30T17:35:34.636Z,73.80
2017-08-30T17:38:02.942Z,73.50
2017-08-30T17:40:31.241Z,73.60
2017-08-30T17:42:59.589Z,74.30
2017-08-30T17:45:27.913Z,74.40
2017-08-30T17:47:56.221Z,74.50
2017-08-30T17:50:24.610Z,74.30
2017-08-30T17:52:53.060Z,74.30
2017-08-30T17:55:21.367Z,73.90
2017-08-30T17:57:49.674Z,74.80
2017-08-30T18:00:17.995Z,74.10
2017-08-30T18:02:47.068Z,74.80
2017-08-30T18:05:15.408Z,74.00
2017-08-30T18:07:43.707Z,73.70
2017-08-30T18:10:12.039Z,74.10
2017-08-30T18:12:40.347Z,74.10
2017-08-30T18:15:08.673Z,74.60
2017-08-30T18:17:36.966Z,74.20
2017-08-30T18:20:05.278Z,74.00
2017-08-30T18:22:33.566Z,74.10
2017-08-30T18:25:01.876Z,73.90
2017-08-30T18:27:30.674Z,74.20
2017-08-30T18:29:59.177Z,74.00
2017-08-30T18:32:27.508Z,73.90
2017-08-30T18:34:56.690Z,74.00
2017-08-30T18:37:24.986Z,73.90
2017-08-30T18:39:53.286Z,75.00
2017-08-30T18:42:22.358Z,74.60
2017-08-30T18:44:50.651Z,74.60
2017-08-30T18:47:18.939Z,74.60
2017-08-30T18:49:47.232Z,74.80
2017-08-30T18:52:15.571Z,74.70
2017-08-30T18:54:43.866Z,75.10
2017-08-30T18:57:12.187Z,75.20
2017-08-30T18:59:40.473Z,75.40
2017-08-30T19:02:08.757Z,75.80
2017-08-30T19:04:37.050Z,75.80
2017-08-30T19:07:05.347Z,75.80
2017-08-30T19:09:33.682Z,76.20
2017-08-30T19:12:01.975Z,76.30
2017-08-30T19:14:30.302Z,76.30
2017-08-30T19:16:58.598Z,77.00
2017-08-30T19:19:26.920Z,76.60
2017-08-30T19:21:55.207Z,77.10
2017-08-30T19:24:24.220Z,77.30
2017-08-30T19:26:52.859Z,77.20
2017-08-30T19:29:21.201Z,77.20
2017-08-30T19:31:49.533Z,77.90
2017-08-30T19:34:17.832Z,77.60
2017-08-30T19:36:46.123Z,77.60
2017-08-30T19:39:14.478Z,77.40
2017-08-30T19:41:43.014Z,77.60
2017-08-30T19:44:11.331Z,77.80
2017-08-30T19:46:39.624Z,77.90
2017-08-30T19:49:07.931Z,78.10
2017-08-30T19:51:36.225Z,78.30
2017-08-30T19:54:04.706Z,78.40
2017-08-30T19:56:33.033Z,78.50
2017-08-30T19:59:01.358Z,78.30
2017-08-30T20:01:29.663Z,78.30
2017-08-30T20:03:57.965Z,78.50
2017-08-30T20:06:26.306Z,78.80
2017-08-30T20:08:54.598Z,78.80
2017-08-30T20:11:22.914Z,78.80
2017-08-30T20:13:51.210Z,78.80
2017-08-30T20:16:19.530Z,78.60
2017-08-30T20:18:47.851Z,78.60
2017-08-30T20:21:16.171Z,78.70
2017-08-30T20:23:44.462Z,78.50
2017-08-30T20:26:12.750Z,78.50
2017-08-30T20:28:41.520Z,78.60
2017-08-30T20:31:09.813Z,78.60
2017-08-30T20:33:38.108Z,78.60
2017-08-30T20:36:06.431Z,78.40
2017-08-30T20:38:34.772Z,78.40
2017-08-30T20:41:03.086Z,78.10
2017-08-30T20:43:31.369Z,78.00
2017-08-30T20:45:59.683Z,78.10
2017-08-30T20:48:28.033Z,77.90
2017-08-30T20:50:56.356Z,77.80
2017-08-30T20:53:24.654Z,77.40
2017-08-30T20:55:52.945Z,77.60
2017-08-30T20:58:21.286Z,77.50
2017-08-30T21:00:49.600Z,77.70
2017-08-30T21:03:17.897Z,78.00
2017-08-30T21:05:46.215Z,78.10
2017-08-30T21:08:14.517Z,78.50
2017-08-30T21:10:42.871Z,78.70
2017-08-30T21:13:11.159Z,78.90
2017-08-30T21:15:39.473Z,79.00
2017-08-30T21:18:07.772Z,79.30
2017-08-30T21:20:36.078Z,79.10
2017-08-30T21:23:04.398Z,79.20
2017-08-30T21:25:32.691Z,79.20
2017-08-30T21:28:01.329Z,78.90
2017-08-30T21:30:30.414Z,78.80
2017-08-30T21:32:58.738Z,78.80
2017-08-30T21:35:27.035Z,78.70
2017-08-30T21:37:55.362Z,78.40
2017-08-30T21:40:23.667Z,78.40
2017-08-30T21:42:51.998Z,78.40
2017-08-30T21:45:20.298Z,78.50
2017-08-30T21:47:48.628Z,78.50
2017-08-30T21:50:16.954Z,78.40
2017-08-30T21:52:45.262Z,78.30
2017-08-30T21:55:13.559Z,78.30
2017-08-30T21:57:41.853Z,78.50
2017-08-30T22:00:10.187Z,78.70
2017-08-30T22:02:38.492Z,78.80
2017-08-30T22:05:06.837Z,78.80
2017-08-30T22:07:35.151Z,78.90
2017-08-30T22:10:03.476Z,78.80
2017-08-30T22:12:31.767Z,78.80
2017-08-30T22:15:00.078Z,78.80
2017-08-30T22:17:28.382Z,78.80
2017-08-30T22:19:56.689Z,79.10
2017-08-30T22:22:25.324Z,79.40
2017-08-30T22:24:53.643Z,79.40
2017-08-30T22:27:21.975Z,79.30
2017-08-30T22:29:50.266Z,79.60
2017-08-30T22:32:18.617Z,80.00
2017-08-30T22:34:46.901Z,79.20
2017-08-30T22:37:15.198Z,79.10
2017-08-30T22:39:43.511Z,80.00
2017-08-30T22:42:11.806Z,80.50
2017-08-30T22:44:40.110Z,80.20
2017-08-30T22:47:08.401Z,80.50
2017-08-30T22:49:36.887Z,80.60
2017-08-30T22:52:05.178Z,80.80
2017-08-30T22:54:33.528Z,81.00
2017-08-30T22:57:01.818Z,81.50
2017-08-30T22:59:30.121Z,81.30
2017-08-30T23:01:58.416Z,81.20
2017-08-30T23:04:26.757Z,81.20
2017-08-30T23:06:55.826Z,82.00
2017-08-30T23:09:24.131Z,82.10
2017-08-30T23:11:52.435Z,82.60
2017-08-30T23:14:20.725Z,82.80
2017-08-30T23:16:49.031Z,83.50
2017-08-30T23:19:17.352Z,84.00
2017-08-30T23:21:45.659Z,84.40
2017-08-30T23:24:13.967Z,84.60
2017-08-30T23:26:42.262Z,84.70
2017-08-30T23:29:10.553Z,84.90
2017-08-30T23:31:38.905Z,85.10
2017-08-30T23:34:07.217Z,85.20
2017-08-30T23:36:35.559Z,85.40
2017-08-30T23:39:03.891Z,85.20
2017-08-30T23:41:32.195Z,85.20
2017-08-30T23:44:00.740Z,85.70
2017-08-30T23:46:29.042Z,85.80
2017-08-30T23:48:57.356Z,86.00
2017-08-30T23:51:25.640Z,86.40
2017-08-30T23:53:53.977Z,86.60
2017-08-30T23:56:23.623Z,86.20
2017-08-30T23:58:51.934Z,86.20
